Time;durP1;ratioP1;P1;durP2;ratioP2;P2;SDS_P1;SDS_P2;PMS_P1;PMS_P2;Temp;Humidity;BMP_temperature;BMP_pressure;BME280_temperature;BME280_humidity;BME280_pressure;Samples;Min_cycle;Max_cycle;Signal;HPM_P1;HPM_P2
2022/12/11 00:01:42;;;;;;;23.95;13.88;;;5.00;95.80;;;;;;5128776;28;20035;-53
2022/12/11 00:04:08;;;;;;;28.35;13.73;;;5.00;95.80;;;;;;5110207;28;20114;-54
2022/12/11 00:06:33;;;;;;;25.25;13.75;;;4.90;95.70;;;;;;5110249;28;20099;-54
2022/12/11 00:08:59;;;;;;;23.83;12.65;;;5.00;95.70;;;;;;5110183;28;20023;-54
2022/12/11 00:11:24;;;;;;;23.55;13.15;;;4.90;95.70;;;;;;5110143;28;20031;-53
2022/12/11 00:13:50;;;;;;;20.73;12.25;;;5.00;95.70;;;;;;5110293;28;20023;-54
2022/12/11 00:16:15;;;;;;;25.13;13.68;;;5.00;95.70;;;;;;5128386;28;20051;-54
2022/12/11 00:18:41;;;;;;;25.55;13.93;;;4.90;95.60;;;;;;5128270;28;20028;-53
2022/12/11 00:21:08;;;;;;;20.50;12.07;;;4.90;95.60;;;;;;5110079;28;20031;-53
2022/12/11 00:23:34;;;;;;;24.52;12.88;;;4.90;95.60;;;;;;5109800;28;20106;-54
2022/12/11 00:26:00;;;;;;;22.35;13.18;;;4.90;95.50;;;;;;5109789;28;20040;-54
2022/12/11 00:28:25;;;;;;;27.98;13.27;;;4.90;95.50;;;;;;5109824;28;20045;-54
2022/12/11 00:30:51;;;;;;;26.15;12.95;;;4.90;95.50;;;;;;5127698;28;20062;-54
2022/12/11 00:33:16;;;;;;;21.05;12.68;;;4.90;95.50;;;;;;5109311;28;20072;-54
2022/12/11 00:35:44;;;;;;;20.33;12.13;;;4.90;95.50;;;;;;5109721;28;20024;-54
2022/12/11 00:38:17;;;;;;;18.73;11.63;;;4.90;95.40;;;;;;5109679;28;20023;-54
2022/12/11 00:40:43;;;;;;;24.25;13.00;;;4.90;95.40;;;;;;5127750;28;20028;-54
2022/12/11 00:43:09;;;;;;;18.23;13.27;;;4.90;95.40;;;;;;5109486;28;20032;-54
2022/12/11 00:45:42;;;;;;;26.38;12.25;;;4.90;95.40;;;;;;5109329;28;20032;-54
2022/12/11 00:48:08;;;;;;;21.83;12.75;;;4.80;95.40;;;;;;5109283;28;20039;-54
2022/12/11 00:50:34;;;;;;;21.27;11.25;;;4.80;95.30;;;;;;5109598;28;20083;-54
2022/12/11 00:53:00;;;;;;;23.25;11.95;;;4.80;95.30;;;;;;5092178;28;20027;-54
2022/12/11 00:55:27;;;;;;;17.23;12.10;;;4.80;95.30;;;;;;5109450;28;20024;-54
2022/12/11 00:57:53;;;;;;;21.55;11.98;;;4.80;95.30;;;;;;5127628;28;20080;-54
2022/12/11 01:00:18;;;;;;;22.27;12.55;;;4.80;95.30;;;;;;5108814;28;20027;-55
2022/12/11 01:02:44;;;;;;;24.10;11.38;;;4.80;95.30;;;;;;5109201;28;20092;-54
2022/12/11 01:05:10;;;;;;;16.88;11.25;;;4.70;95.30;;;;;;5109026;28;20023;-54
2022/12/11 01:07:35;;;;;;;24.48;12.77;;;4.70;95.30;;;;;;5127296;28;20028;-54
2022/12/11 01:12:45;;;;;;;18.08;11.85;;;4.70;95.30;;;;;;5111611;28;20123;-54
2022/12/11 01:15:11;;;;;;;19.52;11.75;;;4.70;95.30;;;;;;5109185;28;20019;-54
2022/12/11 01:17:36;;;;;;;15.73;11.07;;;4.70;95.30;;;;;;5127358;28;20028;-54
2022/12/11 01:20:03;;;;;;;21.95;12.07;;;4.70;95.30;;;;;;5108733;28;20502;-54
2022/12/11 01:22:29;;;;;;;19.17;11.82;;;4.70;95.30;;;;;;5127286;28;20053;-54
2022/12/11 01:24:55;;;;;;;19.08;11.13;;;4.70;95.30;;;;;;5108679;28;20030;-54
2022/12/11 01:27:20;;;;;;;15.10;11.25;;;4.70;95.30;;;;;;5127101;28;20059;-54
2022/12/11 01:29:46;;;;;;;19.40;11.25;;;4.70;95.30;;;;;;5091793;28;20023;-54
2022/12/11 01:32:11;;;;;;;18.52;11.57;;;4.70;95.30;;;;;;5127914;28;20034;-54
2022/12/11 01:34:37;;;;;;;20.38;11.77;;;4.60;95.20;;;;;;5126904;28;20035;-54
2022/12/11 01:37:02;;;;;;;22.20;11.88;;;4.60;95.20;;;;;;5126820;28;20072;-54
2022/12/11 01:39:28;;;;;;;16.25;10.85;;;4.60;95.20;;;;;;5108176;28;20032;-54
2022/12/11 01:41:57;;;;;;;17.33;11.85;;;4.60;95.20;;;;;;5126637;28;20084;-54
2022/12/11 01:44:23;;;;;;;21.88;11.48;;;4.60;95.20;;;;;;5108191;28;20032;-54
2022/12/11 01:46:48;;;;;;;19.45;12.45;;;4.60;95.20;;;;;;5126532;28;20047;-54
2022/12/11 01:49:14;;;;;;;17.23;11.75;;;4.60;95.20;;;;;;5126374;28;20115;-54
2022/12/11 01:51:49;;;;;;;18.17;11.68;;;4.60;95.20;;;;;;5107907;28;20054;-54
2022/12/11 01:54:15;;;;;;;23.67;12.27;;;4.60;95.20;;;;;;5108210;28;20568;-54
2022/12/11 01:56:41;;;;;;;19.05;10.93;;;4.60;95.20;;;;;;5107856;28;20068;-54
2022/12/11 01:59:07;;;;;;;21.08;11.02;;;4.60;95.10;;;;;;5108010;28;20123;-54
2022/12/11 02:01:45;;;;;;;16.25;10.73;;;4.60;95.20;;;;;;5107793;28;20036;-54
2022/12/11 02:04:10;;;;;;;18.92;11.27;;;4.60;95.20;;;;;;5108863;28;20040;-54
2022/12/11 02:06:38;;;;;;;17.48;11.27;;;4.50;95.20;;;;;;5107528;28;20036;-55
2022/12/11 02:09:06;;;;;;;20.92;11.13;;;4.60;95.20;;;;;;5107515;28;20083;-54
2022/12/11 02:12:01;;;;;;;17.17;11.32;;;4.60;95.10;;;;;;5090595;28;20043;-54
2022/12/11 02:14:58;;;;;;;19.57;11.30;;;4.50;95.10;;;;;;5103461;28;20036;-54
2022/12/11 02:17:51;;;;;;;14.55;10.90;;;4.50;95.10;;;;;;5107474;28;20265;-54
2022/12/11 02:20:25;;;;;;;14.93;10.35;;;4.50;95.10;;;;;;5110324;28;20426;-54
2022/12/11 02:23:18;;;;;;;15.50;11.07;;;4.50;95.10;;;;;;5108575;28;20035;-54
2022/12/11 02:26:04;;;;;;;15.77;11.05;;;4.50;95.10;;;;;;5090459;28;20035;-54
2022/12/11 02:28:34;;;;;;;17.85;10.10;;;4.50;95.10;;;;;;5125788;28;20032;-54
2022/12/11 02:31:22;;;;;;;16.60;10.88;;;4.50;95.00;;;;;;5107506;28;20026;-54
2022/12/11 02:34:15;;;;;;;14.70;10.75;;;4.50;95.00;;;;;;5109956;28;20127;-54
2022/12/11 02:36:42;;;;;;;14.07;10.40;;;4.50;95.00;;;;;;5125816;28;20038;-54
2022/12/11 02:39:09;;;;;;;18.05;11.70;;;4.40;94.90;;;;;;5107323;28;20036;-55
2022/12/11 02:41:34;;;;;;;16.70;11.27;;;4.50;95.00;;;;;;5107262;28;20024;-54
2022/12/11 02:44:01;;;;;;;17.05;10.93;;;4.50;94.90;;;;;;5107342;28;20061;-54
2022/12/11 02:46:26;;;;;;;16.30;11.02;;;4.40;94.90;;;;;;5107105;28;20028;-54
2022/12/11 02:48:52;;;;;;;15.60;10.48;;;4.40;94.90;;;;;;5107248;28;20054;-55
2022/12/11 02:51:21;;;;;;;15.13;10.65;;;4.40;94.90;;;;;;5107330;28;20038;-55
2022/12/11 02:53:47;;;;;;;15.13;10.40;;;4.40;94.90;;;;;;5107650;28;20535;-54
2022/12/11 02:56:17;;;;;;;18.33;11.30;;;4.40;94.90;;;;;;5096778;28;20048;-54
2022/12/11 02:58:48;;;;;;;15.43;10.88;;;4.40;94.90;;;;;;5097291;28;20026;-55
2022/12/11 03:01:13;;;;;;;17.25;10.38;;;4.40;94.90;;;;;;5114138;28;20036;-55
2022/12/11 03:03:39;;;;;;;15.48;10.68;;;4.40;95.10;;;;;;5114457;28;20092;-55
2022/12/11 03:06:04;;;;;;;15.13;10.88;;;4.40;94.90;;;;;;5114250;28;20027;-54
2022/12/11 03:08:30;;;;;;;16.05;11.10;;;4.40;94.90;;;;;;5113745;28;20434;-55
2022/12/11 03:10:56;;;;;;;14.75;10.52;;;4.40;94.90;;;;;;5113820;28;20031;-54
2022/12/11 03:13:22;;;;;;;13.60;10.50;;;4.40;94.90;;;;;;5132292;28;20016;-54
2022/12/11 03:16:10;;;;;;;16.58;10.32;;;4.30;94.90;;;;;;5113685;28;20027;-55
2022/12/11 03:18:41;;;;;;;15.07;10.65;;;4.30;94.90;;;;;;5115869;28;20026;-55
2022/12/11 03:21:37;;;;;;;13.02;10.10;;;4.30;94.90;;;;;;5096655;28;20027;-54
2022/12/11 03:24:29;;;;;;;13.98;10.07;;;4.30;94.90;;;;;;5096829;28;20023;-54
2022/12/11 03:27:00;;;;;;;13.75;9.95;;;4.30;95.00;;;;;;5113471;28;20442;-54
2022/12/11 03:29:30;;;;;;;13.60;9.60;;;4.30;95.00;;;;;;5114332;28;20036;-54
2022/12/11 03:31:58;;;;;;;13.48;10.25;;;4.30;95.00;;;;;;5097074;28;20031;-55
2022/12/11 03:34:35;;;;;;;15.00;9.88;;;4.30;95.00;;;;;;5113797;28;20027;-55
2022/12/11 03:37:01;;;;;;;11.18;9.65;;;4.40;95.00;;;;;;5097268;28;20024;-55
2022/12/11 03:39:36;;;;;;;13.65;10.27;;;4.30;95.30;;;;;;5096718;28;20113;-54
2022/12/11 03:42:03;;;;;;;14.50;9.93;;;4.30;95.00;;;;;;5096525;28;20032;-55
2022/12/11 03:44:29;;;;;;;14.00;10.23;;;4.30;95.00;;;;;;5113560;28;20121;-55
2022/12/11 03:46:54;;;;;;;13.18;9.40;;;4.40;95.00;;;;;;5096299;28;20043;-55
2022/12/11 03:49:25;;;;;;;11.27;9.95;;;4.30;95.00;;;;;;5113568;28;20031;-55
2022/12/11 03:51:51;;;;;;;12.70;9.90;;;4.30;95.00;;;;;;5114105;28;20058;-55
2022/12/11 03:54:16;;;;;;;13.45;9.73;;;4.30;95.00;;;;;;5096794;28;20091;-55
2022/12/11 03:56:42;;;;;;;11.77;9.98;;;4.30;95.00;;;;;;5096625;28;20023;-55
2022/12/11 03:59:08;;;;;;;13.38;9.95;;;4.30;94.90;;;;;;5096436;28;20031;-54
2022/12/11 04:01:33;;;;;;;13.25;10.63;;;4.30;95.00;;;;;;5113485;28;20091;-55
2022/12/11 04:03:59;;;;;;;12.13;9.48;;;4.30;94.90;;;;;;5131728;28;20035;-55
2022/12/11 04:06:24;;;;;;;14.40;10.02;;;4.30;94.90;;;;;;5110646;28;20045;-55
2022/12/11 04:08:50;;;;;;;13.27;10.63;;;4.30;94.90;;;;;;5110063;28;20046;-55
2022/12/11 04:11:33;;;;;;;17.75;10.00;;;4.30;94.90;;;;;;5109894;28;20104;-55
2022/12/11 04:16:51;;;;;;;13.63;10.23;;;4.30;94.90;;;;;;5128475;28;20038;-55
2022/12/11 04:24:50;;;;;;;15.02;9.77;;;4.30;94.80;;;;;;5098540;28;20104;-55
2022/12/11 04:30:00;;;;;;;14.52;10.48;;;4.20;94.80;;;;;;5112499;28;20500;-55
2022/12/11 04:32:26;;;;;;;14.05;10.15;;;4.20;94.80;;;;;;5128258;28;20028;-55
2022/12/11 04:34:51;;;;;;;17.10;12.43;;;4.20;94.80;;;;;;5127924;28;20028;-55
2022/12/11 04:37:17;;;;;;;16.13;10.60;;;4.20;94.70;;;;;;5092765;28;20062;-55
2022/12/11 04:39:42;;;;;;;15.02;11.32;;;4.20;94.70;;;;;;5109694;28;20035;-55
2022/12/11 04:42:08;;;;;;;14.77;11.10;;;4.20;94.70;;;;;;5128132;28;20515;-55
2022/12/11 04:44:34;;;;;;;12.30;10.32;;;4.20;94.80;;;;;;5109755;28;20035;-55
2022/12/11 04:46:59;;;;;;;13.63;10.68;;;4.20;94.80;;;;;;5092479;28;20023;-55
2022/12/11 04:49:25;;;;;;;12.02;10.60;;;4.20;94.90;;;;;;5109328;28;20050;-55
2022/12/11 04:51:50;;;;;;;15.98;11.13;;;4.20;94.80;;;;;;5127613;28;20031;-55
2022/12/11 04:54:16;;;;;;;15.15;11.18;;;4.20;94.80;;;;;;5092328;28;20059;-55
2022/12/11 04:56:41;;;;;;;14.38;9.45;;;4.20;94.70;;;;;;5127590;28;20038;-55
2022/12/11 04:59:07;;;;;;;14.15;10.50;;;4.20;94.70;;;;;;5109367;28;20028;-55
2022/12/11 05:01:32;;;;;;;13.55;11.30;;;4.20;95.00;;;;;;5109004;28;20118;-55
2022/12/11 05:03:58;;;;;;;15.48;11.45;;;4.10;94.60;;;;;;5109114;28;20027;-55
2022/12/11 05:06:24;;;;;;;12.65;10.85;;;4.10;94.60;;;;;;5127332;28;20511;-55
2022/12/11 05:08:49;;;;;;;11.82;10.60;;;4.10;94.60;;;;;;5109394;28;20043;-55
2022/12/11 05:11:16;;;;;;;11.50;9.88;;;4.10;94.60;;;;;;5108990;28;20110;-54
2022/12/11 05:13:42;;;;;;;15.48;10.63;;;4.10;94.60;;;;;;5127506;28;20031;-55
2022/12/11 05:16:09;;;;;;;16.75;10.32;;;4.10;94.60;;;;;;5108840;28;20028;-55
2022/12/11 05:18:34;;;;;;;15.20;10.85;;;4.10;94.60;;;;;;5108730;28;20441;-54
2022/12/11 05:21:01;;;;;;;13.35;10.65;;;4.10;94.60;;;;;;5109017;28;20030;-55
2022/12/11 05:23:27;;;;;;;14.07;10.63;;;4.10;94.60;;;;;;5127207;28;20095;-55
2022/12/11 05:25:53;;;;;;;13.20;10.93;;;4.00;94.50;;;;;;5127215;28;20038;-55
2022/12/11 05:28:19;;;;;;;12.43;10.68;;;4.10;94.50;;;;;;5109255;28;20023;-55
2022/12/11 05:30:45;;;;;;;13.43;10.48;;;4.00;94.40;;;;;;5109214;28;20048;-55
2022/12/11 05:33:10;;;;;;;12.75;10.60;;;4.00;94.40;;;;;;5109141;28;20039;-55
2022/12/11 05:35:36;;;;;;;13.68;11.20;;;4.00;94.40;;;;;;5108754;28;20016;-55
2022/12/11 05:38:02;;;;;;;16.45;11.60;;;4.00;94.40;;;;;;5126857;28;20027;-55
2022/12/11 05:40:27;;;;;;;13.88;11.15;;;4.00;94.40;;;;;;5108235;28;20024;-55
2022/12/11 05:42:53;;;;;;;13.48;11.27;;;3.90;94.60;;;;;;5108623;28;20035;-55
2022/12/11 05:45:18;;;;;;;13.70;10.15;;;4.00;94.30;;;;;;5126719;28;20103;-55
2022/12/11 05:47:44;;;;;;;13.55;11.20;;;4.00;94.30;;;;;;5108417;28;20039;-55
2022/12/11 05:50:09;;;;;;;14.35;11.30;;;4.00;94.30;;;;;;5108009;28;20024;-55
2022/12/11 05:52:35;;;;;;;12.63;10.32;;;4.00;94.20;;;;;;5126200;28;20034;-55
2022/12/11 05:55:00;;;;;;;12.60;10.27;;;3.90;94.20;;;;;;5108375;28;20034;-55
2022/12/11 05:57:26;;;;;;;15.50;11.30;;;3.90;94.10;;;;;;5108073;28;20079;-55
2022/12/11 05:59:52;;;;;;;11.90;10.43;;;3.90;94.10;;;;;;5107973;28;20027;-55
2022/12/11 06:02:17;;;;;;;12.45;10.55;;;3.90;94.10;;;;;;5107955;28;20036;-55
2022/12/11 06:04:43;;;;;;;15.40;11.43;;;3.90;94.10;;;;;;5107910;28;20039;-55
2022/12/11 06:07:08;;;;;;;13.63;11.43;;;3.90;94.10;;;;;;5107832;28;20084;-55
2022/12/11 06:09:34;;;;;;;13.10;10.60;;;3.90;94.10;;;;;;5107734;28;20091;-55
2022/12/11 06:11:59;;;;;;;13.48;11.60;;;3.90;94.10;;;;;;5107677;28;20020;-55
2022/12/11 06:14:25;;;;;;;12.65;10.48;;;3.90;94.00;;;;;;5107907;28;20035;-55
2022/12/11 06:16:51;;;;;;;14.32;10.70;;;3.90;94.00;;;;;;5107661;28;20453;-60
2022/12/11 06:19:19;;;;;;;12.60;10.05;;;3.90;94.00;;;;;;5126008;28;20049;-55
2022/12/11 06:21:45;;;;;;;16.38;11.63;;;3.90;94.00;;;;;;5090915;28;20058;-55
2022/12/11 06:24:11;;;;;;;13.18;10.98;;;3.90;94.00;;;;;;5107550;28;20497;-55
2022/12/11 06:26:36;;;;;;;12.20;10.50;;;3.90;94.00;;;;;;5107446;28;20102;-55
2022/12/11 06:29:02;;;;;;;11.40;10.05;;;3.90;93.90;;;;;;5107242;28;20032;-55
2022/12/11 06:31:27;;;;;;;12.85;10.80;;;3.90;93.90;;;;;;5107299;28;20024;-55
2022/12/11 06:33:53;;;;;;;12.98;10.50;;;3.90;93.90;;;;;;5107437;28;20095;-55
2022/12/11 06:36:20;;;;;;;12.15;10.10;;;4.00;93.90;;;;;;5107212;28;20023;-55
2022/12/11 06:38:46;;;;;;;13.57;10.60;;;3.90;93.90;;;;;;5107574;28;20024;-55
2022/12/11 06:41:12;;;;;;;12.50;10.43;;;4.00;93.90;;;;;;5107449;28;20499;-56
2022/12/11 06:43:39;;;;;;;15.02;10.02;;;3.90;93.90;;;;;;5107509;28;20115;-55
2022/12/11 06:46:14;;;;;;;13.70;10.27;;;4.00;93.90;;;;;;5107193;28;20035;-56
2022/12/11 06:48:43;;;;;;;12.48;10.05;;;3.90;93.90;;;;;;5107180;28;20016;-55
2022/12/11 06:51:11;;;;;;;13.27;10.90;;;4.00;93.90;;;;;;5107598;28;20027;-55
2022/12/11 06:53:37;;;;;;;12.02;10.70;;;3.90;93.80;;;;;;5107234;28;20035;-55
2022/12/11 06:56:10;;;;;;;15.85;10.20;;;4.00;93.80;;;;;;5107208;28;20173;-55
2022/12/11 06:58:36;;;;;;;13.48;10.25;;;4.00;93.80;;;;;;5107325;28;20043;-55
2022/12/11 07:01:02;;;;;;;12.40;10.60;;;3.90;93.80;;;;;;5125423;28;20019;-55
2022/12/11 07:03:28;;;;;;;11.68;9.63;;;4.00;93.80;;;;;;5107302;28;20027;-55
2022/12/11 07:05:53;;;;;;;15.57;10.73;;;4.00;93.80;;;;;;5106951;28;20035;-55
2022/12/11 07:08:19;;;;;;;16.42;11.60;;;4.00;93.80;;;;;;5107027;28;20400;-55
2022/12/11 07:10:44;;;;;;;17.17;10.35;;;3.90;93.80;;;;;;5125300;28;20093;-55
2022/12/11 07:13:10;;;;;;;18.17;11.13;;;3.90;93.80;;;;;;5089859;28;20035;-55
2022/12/11 07:15:36;;;;;;;14.68;10.00;;;4.00;93.70;;;;;;5106915;28;20042;-56
2022/12/11 07:18:01;;;;;;;14.93;10.48;;;3.90;93.60;;;;;;5107171;28;20081;-56
2022/12/11 07:20:27;;;;;;;14.90;10.98;;;3.90;93.60;;;;;;5106903;28;20103;-56
2022/12/11 07:22:53;;;;;;;11.77;10.27;;;3.90;93.50;;;;;;5107078;28;20032;-55
2022/12/11 07:25:19;;;;;;;12.15;10.77;;;3.90;93.40;;;;;;5107056;28;20028;-56
2022/12/11 07:27:44;;;;;;;13.73;10.25;;;3.90;93.30;;;;;;5125354;28;20061;-56
2022/12/11 07:30:10;;;;;;;12.77;10.60;;;3.90;93.20;;;;;;5125538;28;20073;-55
2022/12/11 07:32:36;;;;;;;13.30;10.52;;;3.90;93.20;;;;;;5107956;28;20465;-55
2022/12/11 07:35:02;;;;;;;16.50;10.45;;;3.90;93.20;;;;;;5125215;28;20023;-55
2022/12/11 07:37:27;;;;;;;12.82;9.85;;;3.80;93.20;;;;;;5106901;28;20031;-55
2022/12/11 07:39:53;;;;;;;12.40;10.38;;;3.80;93.20;;;;;;5106992;28;20035;-56
2022/12/11 07:42:18;;;;;;;13.57;10.30;;;3.80;93.20;;;;;;5128378;28;20434;-56
2022/12/11 07:44:44;;;;;;;14.15;10.90;;;3.80;93.20;;;;;;5110397;28;20035;-56
2022/12/11 07:47:09;;;;;;;11.93;9.85;;;3.80;93.10;;;;;;5110477;28;20031;-56
2022/12/11 07:49:35;;;;;;;14.10;10.65;;;3.80;93.10;;;;;;5128797;28;20028;-56
2022/12/11 07:52:00;;;;;;;12.70;10.52;;;3.80;93.00;;;;;;5128175;28;20077;-55
2022/12/11 07:54:26;;;;;;;12.38;10.85;;;3.80;93.00;;;;;;5110521;28;20026;-55
2022/12/11 07:56:52;;;;;;;13.57;11.73;;;3.80;93.00;;;;;;5110280;28;20092;-55
2022/12/11 07:59:17;;;;;;;14.75;11.73;;;3.80;92.90;;;;;;5110313;28;20023;-55
2022/12/11 08:01:43;;;;;;;14.07;10.88;;;3.80;92.90;;;;;;5110372;28;20042;-55
2022/12/11 08:04:09;;;;;;;15.75;11.77;;;3.80;92.90;;;;;;5128626;28;20076;-56
2022/12/11 08:06:37;;;;;;;12.80;10.43;;;3.80;92.80;;;;;;5109923;28;20342;-55
2022/12/11 08:09:04;;;;;;;13.77;11.90;;;3.80;92.80;;;;;;5109979;28;20027;-56
2022/12/11 08:11:29;;;;;;;12.88;10.98;;;3.80;92.70;;;;;;5109987;28;20035;-55
2022/12/11 08:13:55;;;;;;;15.43;12.93;;;3.80;92.70;;;;;;5110140;28;20043;-56
2022/12/11 08:16:21;;;;;;;12.23;10.93;;;3.80;92.70;;;;;;5109929;28;20028;-55
2022/12/11 08:18:46;;;;;;;14.93;12.35;;;3.80;92.60;;;;;;5110022;28;20140;-56
2022/12/11 08:21:12;;;;;;;14.80;12.45;;;3.80;92.60;;;;;;5109591;28;20131;-56
2022/12/11 08:23:37;;;;;;;14.75;12.45;;;3.70;92.60;;;;;;5128055;28;20032;-55
2022/12/11 08:26:04;;;;;;;13.90;11.82;;;3.70;92.60;;;;;;5109829;28;20504;-55
2022/12/11 08:28:30;;;;;;;15.15;12.15;;;3.70;92.50;;;;;;5109744;28;20046;-56
2022/12/11 08:30:55;;;;;;;13.07;11.68;;;3.70;92.50;;;;;;5128093;28;20020;-56
2022/12/11 08:33:21;;;;;;;15.70;11.43;;;3.70;92.60;;;;;;5109572;28;20024;-55
2022/12/11 08:35:47;;;;;;;15.02;11.82;;;3.70;92.60;;;;;;5109440;28;20031;-56
2022/12/11 08:38:12;;;;;;;14.50;11.52;;;3.70;92.60;;;;;;5109444;28;20027;-56
2022/12/11 08:40:38;;;;;;;15.35;12.50;;;3.70;92.50;;;;;;5109565;28;20019;-56
2022/12/11 08:43:03;;;;;;;15.73;12.73;;;3.70;92.50;;;;;;5127991;28;20430;-56
2022/12/11 08:45:29;;;;;;;15.65;11.48;;;3.70;92.50;;;;;;5109151;28;20023;-56
2022/12/11 08:47:55;;;;;;;14.32;12.02;;;3.70;92.50;;;;;;5109302;28;20035;-56
2022/12/11 08:50:20;;;;;;;16.15;12.05;;;3.70;92.50;;;;;;5092200;28;20019;-56
2022/12/11 08:52:46;;;;;;;14.70;12.45;;;3.70;92.50;;;;;;5108248;28;20103;-56
2022/12/11 08:55:12;;;;;;;15.38;12.25;;;3.70;92.50;;;;;;5109340;28;20096;-56
2022/12/11 08:57:38;;;;;;;14.73;11.77;;;3.70;92.50;;;;;;5127449;28;20102;-56
2022/12/11 09:00:05;;;;;;;14.20;11.85;;;3.70;92.50;;;;;;5092219;28;20126;-56
2022/12/11 09:02:31;;;;;;;15.52;12.85;;;3.70;92.50;;;;;;5108950;28;20028;-56
2022/12/11 09:04:56;;;;;;;16.08;12.98;;;3.70;92.40;;;;;;5108687;28;20031;-56
2022/12/11 09:07:22;;;;;;;15.43;12.40;;;3.60;92.30;;;;;;5108623;28;20027;-55
2022/12/11 09:09:48;;;;;;;16.27;13.13;;;3.70;92.30;;;;;;5127159;28;20022;-56
2022/12/11 09:12:13;;;;;;;18.70;13.48;;;3.60;92.20;;;;;;5108791;28;20496;-56
2022/12/11 09:14:39;;;;;;;13.65;12.25;;;3.60;92.30;;;;;;5108461;28;20047;-56
2022/12/11 09:17:04;;;;;;;17.40;13.85;;;3.60;92.20;;;;;;5108409;28;20039;-56
2022/12/11 09:19:30;;;;;;;15.63;12.80;;;3.60;92.20;;;;;;5108476;28;20032;-56
2022/12/11 09:21:56;;;;;;;15.70;12.90;;;3.60;92.20;;;;;;5091546;28;20020;-56
2022/12/11 09:24:21;;;;;;;15.70;12.93;;;3.60;92.20;;;;;;5126834;28;20039;-56
2022/12/11 09:26:47;;;;;;;14.77;12.23;;;3.60;92.50;;;;;;5108126;28;20488;-56
2022/12/11 09:29:13;;;;;;;17.35;13.77;;;3.60;92.20;;;;;;5126088;28;20024;-56
2022/12/11 09:31:39;;;;;;;16.00;13.20;;;3.60;92.10;;;;;;5108687;28;20030;-56
2022/12/11 09:34:06;;;;;;;15.88;11.95;;;3.50;92.10;;;;;;5107957;28;20118;-56
2022/12/11 09:36:33;;;;;;;20.20;13.48;;;3.50;92.10;;;;;;5108095;28;20083;-56
2022/12/11 09:39:00;;;;;;;16.20;12.43;;;3.60;92.10;;;;;;5126421;28;20038;-56
2022/12/11 09:41:55;;;;;;;15.80;12.52;;;3.60;92.10;;;;;;5126206;28;20084;-56
2022/12/11 09:44:24;;;;;;;17.17;12.40;;;3.60;92.10;;;;;;5101743;28;20040;-56
2022/12/11 09:46:49;;;;;;;23.58;13.20;;;3.50;92.10;;;;;;5107279;28;20070;-56
2022/12/11 09:49:26;;;;;;;22.85;12.93;;;3.60;92.10;;;;;;5107417;28;20028;-56
2022/12/11 09:51:58;;;;;;;20.67;13.80;;;3.60;92.00;;;;;;5107710;28;20171;-56
2022/12/11 09:54:23;;;;;;;25.13;13.45;;;3.60;92.00;;;;;;5125743;28;20047;-56
2022/12/11 09:56:55;;;;;;;21.23;13.38;;;3.50;91.90;;;;;;5090222;28;20072;-56
2022/12/11 09:59:23;;;;;;;16.23;12.32;;;3.60;91.90;;;;;;5107504;28;20096;-56
2022/12/11 10:02:07;;;;;;;26.48;14.77;;;3.60;91.90;;;;;;5107477;28;20032;-56
2022/12/11 10:05:01;;;;;;;29.58;13.60;;;3.60;91.90;;;;;;5124671;28;20059;-56
2022/12/11 10:07:36;;;;;;;45.47;14.68;;;3.60;91.90;;;;;;5106914;28;20028;-56
2022/12/11 10:10:14;;;;;;;35.25;13.20;;;3.60;92.00;;;;;;5107496;28;20146;-56
2022/12/11 10:12:48;;;;;;;28.98;13.48;;;3.60;92.10;;;;;;5107467;28;20051;-55
2022/12/11 10:15:25;;;;;;;35.60;14.50;;;3.60;91.90;;;;;;5107268;28;20034;-56
2022/12/11 10:17:52;;;;;;;35.13;14.13;;;3.60;91.90;;;;;;5106898;28;20027;-55
2022/12/11 10:20:23;;;;;;;38.13;13.85;;;3.60;91.80;;;;;;5106904;28;20020;-56
2022/12/11 10:22:49;;;;;;;41.15;15.07;;;3.70;91.80;;;;;;5106988;28;20031;-56
2022/12/11 10:25:21;;;;;;;36.75;15.40;;;3.70;91.80;;;;;;5089780;28;20031;-56
2022/12/11 10:27:46;;;;;;;39.60;14.85;;;3.70;91.90;;;;;;5106837;28;20073;-56
2022/12/11 10:30:12;;;;;;;40.67;15.07;;;3.70;91.90;;;;;;5107377;28;20027;-56
2022/12/11 10:33:17;;;;;;;38.53;14.15;;;3.70;91.90;;;;;;5125712;28;20031;-56
2022/12/11 10:35:50;;;;;;;39.67;13.82;;;3.70;91.90;;;;;;5123532;28;20039;-56
2022/12/11 10:38:39;;;;;;;41.08;14.98;;;3.70;91.80;;;;;;5107271;28;20031;-56
2022/12/11 10:41:10;;;;;;;40.08;14.27;;;3.70;91.90;;;;;;5106842;28;20070;-56
2022/12/11 10:43:41;;;;;;;38.92;16.42;;;3.70;91.90;;;;;;5089798;28;20127;-56
2022/12/11 10:46:23;;;;;;;35.33;15.20;;;3.70;91.90;;;;;;5106622;28;20357;-56
2022/12/11 10:48:53;;;;;;;35.80;13.75;;;3.70;91.90;;;;;;5106662;28;20484;-56
2022/12/11 10:51:22;;;;;;;39.58;14.82;;;3.70;91.90;;;;;;5089515;28;20050;-55
2022/12/11 10:53:51;;;;;;;56.10;16.33;;;3.70;91.90;;;;;;5106360;28;20024;-56
2022/12/11 10:56:27;;;;;;;43.20;15.32;;;3.70;91.90;;;;;;5106349;28;20054;-56
2022/12/11 10:58:52;;;;;;;39.45;15.30;;;3.70;92.10;;;;;;5089739;28;20084;-56
2022/12/11 11:01:20;;;;;;;42.38;14.90;;;3.70;92.10;;;;;;5106387;28;20031;-56
2022/12/11 11:04:06;;;;;;;29.13;13.68;;;3.70;92.10;;;;;;5106268;28;20054;-56
2022/12/11 11:06:31;;;;;;;35.28;13.88;;;3.70;92.10;;;;;;5106048;28;20112;-56
2022/12/11 11:08:58;;;;;;;52.03;15.40;;;3.70;92.10;;;;;;5106258;28;20039;-56
2022/12/11 11:11:35;;;;;;;60.05;16.23;;;3.70;92.20;;;;;;5106093;28;20031;-57
2022/12/11 11:14:14;;;;;;;51.15;15.50;;;3.80;92.40;;;;;;5106537;28;20024;-56
2022/12/11 11:16:41;;;;;;;41.72;14.18;;;3.70;92.40;;;;;;5127059;28;20127;-57
2022/12/11 11:19:13;;;;;;;46.63;16.33;;;3.80;92.50;;;;;;5110464;28;20087;-56
2022/12/11 11:21:50;;;;;;;74.18;16.88;;;3.80;92.50;;;;;;5110399;28;20027;-56
2022/12/11 11:24:42;;;;;;;87.75;18.88;;;3.80;92.50;;;;;;5110635;28;20334;-56
2022/12/11 11:27:29;;;;;;;71.50;18.40;;;3.80;92.40;;;;;;5112748;28;20118;-56
2022/12/11 11:30:25;;;;;;;62.35;15.63;;;3.80;92.50;;;;;;5110206;28;20126;-56
2022/12/11 11:33:02;;;;;;;66.72;17.40;;;3.90;92.60;;;;;;5072660;28;20104;-56
2022/12/11 11:35:28;;;;;;;76.85;17.95;;;3.90;92.70;;;;;;5110176;28;20012;-56
2022/12/11 11:37:59;;;;;;;65.43;17.15;;;3.90;92.60;;;;;;5128791;28;20036;-56
2022/12/11 11:40:30;;;;;;;63.95;18.25;;;3.90;92.70;;;;;;5110333;28;20027;-56
2022/12/11 11:43:19;;;;;;;65.50;17.65;;;3.90;92.70;;;;;;5110313;28;20043;-56
2022/12/11 11:45:52;;;;;;;59.33;16.73;;;3.90;92.70;;;;;;5110268;28;20027;-56
2022/12/11 11:48:29;;;;;;;62.08;16.80;;;3.90;92.70;;;;;;5128535;28;20023;-56
2022/12/11 11:50:56;;;;;;;55.65;17.02;;;4.00;92.80;;;;;;5109568;28;20032;-56
2022/12/11 11:53:36;;;;;;;95.57;18.67;;;3.90;92.80;;;;;;5110022;28;20046;-56
2022/12/11 11:56:25;;;;;;;78.57;18.65;;;4.00;92.90;;;;;;5110148;28;20024;-56
2022/12/11 11:59:17;;;;;;;58.33;16.67;;;3.90;92.90;;;;;;5112421;28;20044;-56
2022/12/11 12:01:42;;;;;;;85.00;17.85;;;4.00;92.90;;;;;;5109207;28;20063;-56
2022/12/11 12:04:08;;;;;;;61.70;17.15;;;4.00;92.80;;;;;;5109310;28;20516;-56
2022/12/11 12:06:50;;;;;;;79.63;18.10;;;4.00;92.90;;;;;;5109217;28;20039;-56
2022/12/11 12:09:23;;;;;;;102.25;20.10;;;4.00;92.80;;;;;;5109346;28;20043;-56
2022/12/11 12:11:52;;;;;;;98.13;19.80;;;4.00;92.80;;;;;;5107867;28;20024;-56
2022/12/11 12:14:20;;;;;;;85.70;21.08;;;4.00;93.00;;;;;;5127955;28;20127;-56
2022/12/11 12:17:17;;;;;;;92.63;20.17;;;4.00;93.10;;;;;;5109382;28;20108;-56
2022/12/11 12:19:48;;;;;;;85.65;20.02;;;4.00;93.10;;;;;;5109439;28;20075;-56
2022/12/11 12:22:24;;;;;;;102.55;20.20;;;4.10;93.00;;;;;;5108840;28;20047;-56
2022/12/11 12:25:11;;;;;;;100.50;20.83;;;4.10;93.10;;;;;;5109132;28;20031;-56
2022/12/11 12:27:58;;;;;;;85.85;19.45;;;4.10;93.10;;;;;;5126689;28;20031;-56
2022/12/11 12:30:24;;;;;;;97.72;19.02;;;4.10;93.10;;;;;;5109258;28;20036;-56
2022/12/11 12:32:54;;;;;;;86.63;19.95;;;4.10;93.10;;;;;;5109188;28;20045;-56
2022/12/11 12:35:35;;;;;;;88.38;20.35;;;4.10;93.20;;;;;;5109269;28;20508;-56
2022/12/11 12:38:06;;;;;;;90.80;19.85;;;4.10;93.20;;;;;;5127686;28;20130;-56
2022/12/11 12:40:52;;;;;;;156.95;24.30;;;4.20;93.20;;;;;;5091926;28;20023;-56
2022/12/11 12:43:50;;;;;;;86.68;21.80;;;4.20;93.20;;;;;;5118521;28;20112;-56
2022/12/11 12:46:50;;;;;;;115.00;22.85;;;4.20;93.10;;;;;;5121303;28;20041;-56
2022/12/11 12:49:27;;;;;;;93.07;21.40;;;4.30;93.30;;;;;;5108821;28;20485;-56
2022/12/11 12:51:53;;;;;;;100.55;21.08;;;4.20;93.40;;;;;;5109017;28;20028;-56
2022/12/11 12:54:18;;;;;;;98.72;20.77;;;4.30;93.40;;;;;;5091584;28;20031;-56
2022/12/11 12:56:45;;;;;;;113.80;20.48;;;4.30;93.40;;;;;;5108798;28;20080;-56
2022/12/11 12:59:37;;;;;;;126.00;22.30;;;4.20;93.40;;;;;;5109053;28;20070;-56
2022/12/11 13:02:03;;;;;;;75.75;20.13;;;4.30;93.60;;;;;;5125061;28;20039;-56
2022/12/11 13:04:41;;;;;;;101.65;20.60;;;4.30;93.50;;;;;;5108672;28;20079;-56